createdAt,value
2018-11-06T00:01:50.539Z,19.67
2018-11-06T00:04:24.532Z,18.83
2018-11-06T00:06:53.198Z,18.17
2018-11-06T00:09:21.915Z,18.53
2018-11-06T00:11:50.836Z,17.97
2018-11-06T00:14:20.859Z,18.35
2018-11-06T00:16:49.953Z,18.57
2018-11-06T00:19:19.067Z,18.40
2018-11-06T00:21:48.132Z,17.43
2018-11-06T00:24:17.212Z,17.27
2018-11-06T00:26:46.298Z,17.20
2018-11-06T00:29:15.670Z,16.70
2018-11-06T00:31:44.633Z,15.80
2018-11-06T00:34:14.104Z,16.32
2018-11-06T00:36:43.062Z,17.53
2018-11-06T00:39:12.157Z,17.30
2018-11-06T00:41:41.396Z,17.10
2018-11-06T00:44:10.400Z,16.77
2018-11-06T00:46:41.260Z,16.83
2018-11-06T00:49:10.056Z,15.93
2018-11-06T00:51:39.079Z,16.47
2018-11-06T00:54:08.025Z,16.37
2018-11-06T00:56:36.701Z,16.43
2018-11-06T00:59:05.392Z,15.17
2018-11-06T01:01:34.068Z,15.87
2018-11-06T01:04:10.216Z,14.70
2018-11-06T01:06:38.904Z,14.57
2018-11-06T01:09:10.205Z,14.07
2018-11-06T01:11:39.085Z,15.17
2018-11-06T01:14:08.064Z,14.55
2018-11-06T01:16:36.752Z,14.10
2018-11-06T01:19:05.921Z,14.90
2018-11-06T01:21:34.818Z,15.47
2018-11-06T01:24:03.704Z,15.70
2018-11-06T01:26:33.257Z,15.83
2018-11-06T01:29:02.335Z,16.30
2018-11-06T01:31:31.910Z,16.10
2018-11-06T01:34:00.855Z,15.33
2018-11-06T01:36:29.500Z,16.80
2018-11-06T01:38:58.188Z,15.77
2018-11-06T01:41:26.952Z,17.50
2018-11-06T01:43:55.613Z,17.90
2018-11-06T01:46:24.272Z,18.13
2018-11-06T01:48:52.944Z,16.50
2018-11-06T01:51:22.570Z,18.03
2018-11-06T01:53:51.356Z,16.37
2018-11-06T01:56:20.579Z,17.07
2018-11-06T01:58:49.260Z,17.03
2018-11-06T02:01:18.266Z,15.97
2018-11-06T02:03:47.008Z,16.43
2018-11-06T02:06:15.687Z,16.10
2018-11-06T02:08:44.677Z,16.17
2018-11-06T02:11:13.725Z,15.77
2018-11-06T02:13:42.735Z,16.97
2018-11-06T02:16:12.437Z,16.30
2018-11-06T02:18:41.492Z,15.97
2018-11-06T02:21:10.191Z,16.30
2018-11-06T02:23:38.848Z,16.40
2018-11-06T02:26:07.525Z,15.13
2018-11-06T02:28:36.535Z,16.20
2018-11-06T02:31:05.300Z,17.17
2018-11-06T02:33:34.294Z,15.80
2018-11-06T02:36:03.401Z,14.77
2018-11-06T02:38:32.099Z,14.37
2018-11-06T02:41:00.799Z,14.38
2018-11-06T02:43:29.472Z,14.87
2018-11-06T02:45:58.120Z,14.20
2018-11-06T02:48:26.793Z,13.43
2018-11-06T02:50:55.460Z,14.57
2018-11-06T02:53:24.723Z,14.03
2018-11-06T02:55:53.744Z,13.63
2018-11-06T02:58:23.055Z,13.37
2018-11-06T03:00:52.186Z,11.93
2018-11-06T03:03:20.852Z,12.23
2018-11-06T03:05:49.553Z,12.17
2018-11-06T03:08:18.600Z,13.00
2018-11-06T03:10:47.365Z,12.33
2018-11-06T03:13:16.061Z,11.47
2018-11-06T03:15:44.734Z,11.93
2018-11-06T03:18:13.727Z,12.97
2018-11-06T03:20:42.485Z,13.40
2018-11-06T03:23:11.189Z,11.77
2018-11-06T03:25:39.855Z,11.60
2018-11-06T03:28:08.512Z,12.57
2018-11-06T03:30:37.481Z,15.10
2018-11-06T03:33:06.232Z,14.43
2018-11-06T03:35:34.909Z,15.35
2018-11-06T03:38:03.886Z,15.83
2018-11-06T03:40:32.652Z,14.63
2018-11-06T03:43:01.316Z,15.63
2018-11-06T03:45:30.376Z,15.53
2018-11-06T03:47:59.388Z,16.67
2018-11-06T03:50:28.513Z,16.05
2018-11-06T03:52:58.072Z,17.10
2018-11-06T03:55:27.085Z,18.00
2018-11-06T03:57:55.860Z,16.47
2018-11-06T04:00:24.967Z,17.77
2018-11-06T04:02:54.230Z,17.93
2018-11-06T04:05:23.318Z,18.00
2018-11-06T04:07:52.420Z,17.67
2018-11-06T04:10:21.208Z,19.87
2018-11-06T04:12:49.896Z,18.83
2018-11-06T04:15:19.305Z,19.60
2018-11-06T04:17:48.097Z,18.77
2018-11-06T04:20:17.086Z,19.53
2018-11-06T04:22:45.840Z,19.03
2018-11-06T04:25:14.532Z,19.07
2018-11-06T04:27:43.520Z,19.33
2018-11-06T04:30:13.576Z,18.70
2018-11-06T04:32:43.188Z,20.10
2018-11-06T04:35:13.068Z,19.77
2018-11-06T04:37:42.460Z,20.77
2018-11-06T04:40:13.376Z,19.57
2018-11-06T04:42:42.129Z,21.47
2018-11-06T04:45:11.538Z,19.83
2018-11-06T04:47:40.557Z,21.20
2018-11-06T04:50:10.855Z,22.03
2018-11-06T04:52:39.791Z,22.07
2018-11-06T04:55:10.178Z,21.77
2018-11-06T04:57:38.956Z,22.77
2018-11-06T05:00:10.098Z,21.23
2018-11-06T05:02:39.289Z,21.83
2018-11-06T05:05:08.613Z,21.13
2018-11-06T05:07:38.125Z,20.77
2018-11-06T05:10:09.798Z,23.07
2018-11-06T05:12:38.774Z,21.90
2018-11-06T05:15:09.849Z,21.00
2018-11-06T05:17:38.627Z,21.60
2018-11-06T05:20:10.832Z,23.18
2018-11-06T05:22:39.945Z,21.23
2018-11-06T05:25:09.441Z,21.03
2018-11-06T05:27:39.353Z,22.50
2018-11-06T05:30:08.794Z,21.10
2018-11-06T05:32:38.412Z,20.43
2018-11-06T05:35:07.974Z,21.37
2018-11-06T05:37:37.190Z,22.07
2018-11-06T05:40:11.956Z,20.50
2018-11-06T05:42:41.697Z,19.70
2018-11-06T05:45:10.455Z,21.70
2018-11-06T05:47:39.116Z,20.67
2018-11-06T05:50:08.173Z,21.30
2018-11-06T05:52:36.925Z,20.93
2018-11-06T05:55:05.696Z,20.03
2018-11-06T05:57:34.360Z,20.53
2018-11-06T06:00:03.397Z,20.63
2018-11-06T06:02:32.409Z,20.52
2018-11-06T06:05:01.489Z,20.30
2018-11-06T06:07:30.615Z,21.68
2018-11-06T06:09:59.719Z,20.13
2018-11-06T06:12:28.474Z,20.17
2018-11-06T06:14:57.665Z,20.23
2018-11-06T06:17:26.562Z,19.80
2018-11-06T06:19:55.238Z,20.17
2018-11-06T06:22:24.505Z,22.52
2018-11-06T06:24:53.243Z,20.50
2018-11-06T06:27:22.229Z,21.67
2018-11-06T06:29:50.992Z,19.43
2018-11-06T06:32:26.573Z,21.47
2018-11-06T06:34:55.364Z,21.93
2018-11-06T06:37:24.522Z,19.70
2018-11-06T06:39:53.339Z,20.77
2018-11-06T06:42:22.011Z,19.93
2018-11-06T06:44:51.001Z,19.17
2018-11-06T06:47:19.691Z,20.70
2018-11-06T06:49:48.363Z,19.77
2018-11-06T06:52:17.579Z,20.30
2018-11-06T06:54:46.717Z,18.98
2018-11-06T06:57:15.352Z,18.83
2018-11-06T06:59:44.545Z,18.33
2018-11-06T07:02:14.169Z,19.13
2018-11-06T07:04:43.048Z,17.53
2018-11-06T07:07:11.744Z,17.13
2018-11-06T07:09:40.429Z,15.53
2018-11-06T07:12:09.114Z,15.83
2018-11-06T07:14:37.784Z,14.60
2018-11-06T07:17:06.842Z,13.40
2018-11-06T07:19:35.592Z,12.93
2018-11-06T07:22:04.298Z,13.20
2018-11-06T07:24:33.016Z,12.50
2018-11-06T07:27:02.245Z,12.63
2018-11-06T07:29:31.463Z,12.33
2018-11-06T07:32:00.255Z,12.70
2018-11-06T07:34:29.005Z,12.10
2018-11-06T07:36:58.698Z,12.80
2018-11-06T07:39:27.880Z,13.40
2018-11-06T07:41:56.528Z,12.77
2018-11-06T07:44:25.461Z,12.90
2018-11-06T07:46:54.108Z,13.63
2018-11-06T07:49:22.777Z,12.00
2018-11-06T07:51:51.428Z,12.70
2018-11-06T07:54:20.876Z,12.43
2018-11-06T07:56:49.565Z,13.87
2018-11-06T07:59:18.204Z,11.37
2018-11-06T08:01:47.183Z,11.60
2018-11-06T08:04:16.005Z,11.97
2018-11-06T08:06:44.613Z,10.77
2018-11-06T08:09:13.310Z,10.93
2018-11-06T08:11:41.964Z,10.13
2018-11-06T08:14:11.066Z,10.00
2018-11-06T08:16:39.820Z,9.37
2018-11-06T08:19:08.460Z,10.20
2018-11-06T08:21:37.496Z,10.15
2018-11-06T08:24:06.700Z,9.27
2018-11-06T08:26:35.700Z,8.87
2018-11-06T08:29:04.850Z,9.00
2018-11-06T08:31:33.810Z,7.75
2018-11-06T08:34:03.145Z,8.77
2018-11-06T08:36:32.002Z,8.23
2018-11-06T08:39:00.625Z,8.13
2018-11-06T08:41:29.603Z,9.30
2018-11-06T08:43:58.709Z,7.33
2018-11-06T08:46:27.477Z,7.97
2018-11-06T08:48:56.149Z,7.50
2018-11-06T08:51:24.797Z,7.30
2018-11-06T08:53:53.484Z,7.33
2018-11-06T08:56:22.161Z,6.63
2018-11-06T08:58:50.820Z,6.57
2018-11-06T09:01:19.496Z,5.67
2018-11-06T09:03:48.149Z,5.30
2018-11-06T09:06:17.181Z,5.27
2018-11-06T09:08:46.017Z,4.90
2018-11-06T09:11:14.621Z,5.40
2018-11-06T09:13:43.345Z,5.33
2018-11-06T09:16:12.356Z,4.20
2018-11-06T09:18:41.004Z,4.63
2018-11-06T09:21:09.669Z,5.07
2018-11-06T09:23:38.901Z,4.40
2018-11-06T09:26:07.999Z,4.47
2018-11-06T09:28:36.753Z,4.60
2018-11-06T09:31:05.512Z,4.27
2018-11-06T09:33:34.318Z,4.30
2018-11-06T09:36:02.988Z,4.33
2018-11-06T09:38:31.748Z,4.17
2018-11-06T09:41:00.945Z,5.03
2018-11-06T09:43:29.913Z,4.70
2018-11-06T09:45:58.648Z,5.33
2018-11-06T09:48:27.319Z,4.40
2018-11-06T09:50:56.336Z,5.17
2018-11-06T09:53:25.304Z,4.40
2018-11-06T09:55:54.501Z,4.70
2018-11-06T09:58:23.496Z,4.60
2018-11-06T10:00:52.552Z,5.37
2018-11-06T10:03:21.316Z,4.67
2018-11-06T10:05:50.306Z,4.30
2018-11-06T10:08:19.271Z,4.40
2018-11-06T10:10:48.398Z,4.70
2018-11-06T10:13:17.668Z,4.00
2018-11-06T10:15:46.374Z,4.40
2018-11-06T10:18:15.001Z,4.50
2018-11-06T10:20:43.688Z,4.43
2018-11-06T10:23:12.390Z,4.07
2018-11-06T10:25:41.102Z,4.57
2018-11-06T10:28:10.133Z,4.33
2018-11-06T10:30:38.920Z,4.30
2018-11-06T10:33:08.201Z,3.93
2018-11-06T10:35:36.940Z,4.80
2018-11-06T10:38:05.774Z,4.80
2018-11-06T10:40:34.760Z,4.50
2018-11-06T10:43:03.529Z,4.20
2018-11-06T10:45:32.237Z,4.57
2018-11-06T10:48:00.950Z,4.90
2018-11-06T10:50:30.179Z,4.70
2018-11-06T10:52:59.276Z,5.17
2018-11-06T10:55:28.188Z,4.40
2018-11-06T10:57:56.889Z,4.33
2018-11-06T11:00:31.016Z,4.67
2018-11-06T11:03:05.230Z,4.30
2018-11-06T11:05:34.576Z,4.92
2018-11-06T11:08:03.697Z,4.63
2018-11-06T11:10:32.993Z,5.80
2018-11-06T11:13:01.749Z,4.58
2018-11-06T11:15:31.048Z,4.67
2018-11-06T11:17:59.726Z,5.00
2018-11-06T11:20:29.438Z,4.33
2018-11-06T11:22:58.293Z,4.67
2018-11-06T11:25:27.204Z,4.47
2018-11-06T11:27:55.979Z,4.90
2018-11-06T11:30:24.658Z,4.97
2018-11-06T11:32:54.007Z,4.63
2018-11-06T11:35:22.790Z,5.03
2018-11-06T11:37:51.507Z,4.90
2018-11-06T11:40:21.384Z,4.13
2018-11-06T11:42:53.338Z,5.00
2018-11-06T11:45:22.153Z,3.63
2018-11-06T11:47:51.136Z,4.13
2018-11-06T11:50:19.798Z,4.30
2018-11-06T11:52:48.704Z,4.10
2018-11-06T11:55:17.450Z,4.13
2018-11-06T11:57:46.121Z,4.07
2018-11-06T12:00:16.625Z,3.70
2018-11-06T12:02:45.220Z,4.10
2018-11-06T12:05:13.884Z,3.50
2018-11-06T12:07:42.927Z,4.23
2018-11-06T12:10:12.413Z,4.07
2018-11-06T12:12:41.247Z,3.87
2018-11-06T12:15:13.109Z,3.70
2018-11-06T12:17:42.456Z,3.67
2018-11-06T12:20:11.819Z,4.43
2018-11-06T12:22:41.087Z,4.60
2018-11-06T12:25:10.463Z,5.00
2018-11-06T12:27:39.345Z,4.90
2018-11-06T12:30:09.198Z,4.37
2018-11-06T12:32:38.398Z,4.50
2018-11-06T12:35:08.253Z,4.10
2018-11-06T12:37:37.231Z,4.97
2018-11-06T12:40:07.332Z,4.80
2018-11-06T12:42:37.112Z,4.08
2018-11-06T12:45:06.643Z,3.90
2018-11-06T12:47:35.680Z,3.80
2018-11-06T12:50:04.469Z,3.13
2018-11-06T12:52:33.465Z,4.10
2018-11-06T12:55:02.283Z,3.83
2018-11-06T12:57:30.937Z,2.93
2018-11-06T13:00:00.104Z,3.73
2018-11-06T13:02:28.840Z,3.52
2018-11-06T13:04:57.495Z,3.53
2018-11-06T13:07:26.161Z,4.50
2018-11-06T13:09:54.833Z,3.70
2018-11-06T13:12:23.469Z,4.47
2018-11-06T13:14:52.278Z,4.73
2018-11-06T13:17:20.929Z,4.43
2018-11-06T13:19:49.632Z,4.77
2018-11-06T13:22:19.360Z,4.23
2018-11-06T13:24:48.128Z,5.07
2018-11-06T13:27:16.786Z,5.05
2018-11-06T13:29:45.436Z,6.33
2018-11-06T13:32:14.094Z,5.47
2018-11-06T13:34:43.568Z,5.40
2018-11-06T13:37:12.212Z,5.43
2018-11-06T13:39:41.189Z,4.70
2018-11-06T13:42:10.260Z,5.63
2018-11-06T13:44:39.262Z,6.10
2018-11-06T13:47:07.992Z,5.20
2018-11-06T13:49:36.644Z,7.37
2018-11-06T13:52:05.481Z,5.40
2018-11-06T13:54:34.486Z,5.50
2018-11-06T13:57:03.271Z,5.37
2018-11-06T13:59:31.919Z,5.07
2018-11-06T14:02:00.955Z,5.00
2018-11-06T14:04:29.701Z,5.40
2018-11-06T14:06:58.388Z,5.53
2018-11-06T14:09:27.058Z,4.93
2018-11-06T14:11:55.949Z,5.10
2018-11-06T14:14:24.968Z,5.20
2018-11-06T14:16:54.080Z,5.30
2018-11-06T14:19:23.098Z,5.03
2018-11-06T14:21:51.766Z,6.00
2018-11-06T14:24:20.453Z,4.97
2018-11-06T14:26:49.229Z,5.53
2018-11-06T14:29:18.236Z,5.40
2018-11-06T14:31:47.024Z,5.40
2018-11-06T14:34:15.703Z,5.50
2018-11-06T14:36:45.340Z,4.77
2018-11-06T14:39:14.101Z,4.97
2018-11-06T14:41:43.135Z,6.57
2018-11-06T14:44:11.896Z,4.33
2018-11-06T14:46:40.562Z,4.97
2018-11-06T14:49:09.217Z,4.93
2018-11-06T14:51:37.868Z,5.07
2018-11-06T14:54:06.521Z,5.00
2018-11-06T14:56:35.185Z,4.93
2018-11-06T14:59:03.848Z,4.57
2018-11-06T15:01:32.850Z,4.53
2018-11-06T15:04:01.622Z,4.95
2018-11-06T15:06:30.589Z,4.45
2018-11-06T15:08:59.379Z,4.30
2018-11-06T15:11:28.049Z,4.53
2018-11-06T15:13:56.741Z,4.27
2018-11-06T15:16:25.407Z,4.10
2018-11-06T15:18:54.857Z,4.67
2018-11-06T15:21:23.520Z,3.83
2018-11-06T15:23:52.336Z,4.27
2018-11-06T15:26:21.025Z,3.73
2018-11-06T15:28:50.025Z,3.87
2018-11-06T15:31:19.518Z,3.83
2018-11-06T15:33:48.843Z,3.60
2018-11-06T15:36:18.889Z,3.87
2018-11-06T15:38:47.961Z,3.90
2018-11-06T15:41:17.452Z,3.90
2018-11-06T15:43:46.114Z,3.67
2018-11-06T15:46:15.329Z,4.23
2018-11-06T15:48:44.156Z,3.97
2018-11-06T15:51:12.713Z,4.27
2018-11-06T15:53:41.461Z,4.33
2018-11-06T15:56:10.101Z,3.67
2018-11-06T15:58:38.771Z,4.03
2018-11-06T16:01:07.448Z,5.10
2018-11-06T16:03:36.163Z,3.90
2018-11-06T16:06:04.964Z,3.97
2018-11-06T16:08:33.668Z,4.33
2018-11-06T16:11:02.377Z,3.77
2018-11-06T16:13:31.045Z,3.80
2018-11-06T16:16:00.540Z,3.97
2018-11-06T16:18:29.359Z,3.42
2018-11-06T16:20:58.110Z,4.07
2018-11-06T16:23:27.045Z,3.80
2018-11-06T16:25:55.849Z,4.07
2018-11-06T16:28:24.512Z,4.10
2018-11-06T16:30:53.288Z,4.13
2018-11-06T16:33:22.290Z,3.90
2018-11-06T16:35:52.237Z,4.17
2018-11-06T16:38:20.991Z,3.73
2018-11-06T16:40:49.676Z,4.17
2018-11-06T16:43:18.673Z,3.97
2018-11-06T16:45:47.796Z,3.70
2018-11-06T16:48:16.886Z,4.03
2018-11-06T16:50:45.516Z,3.73
2018-11-06T16:53:14.541Z,3.60
2018-11-06T16:55:43.614Z,4.33
2018-11-06T16:58:12.305Z,4.50
2018-11-06T17:00:41.090Z,3.80
2018-11-06T17:03:09.850Z,4.33
2018-11-06T17:05:38.488Z,3.93
2018-11-06T17:08:07.175Z,5.30
2018-11-06T17:10:35.828Z,3.80
2018-11-06T17:13:04.759Z,4.10
2018-11-06T17:15:33.774Z,3.90
2018-11-06T17:18:02.964Z,4.90
2018-11-06T17:20:32.177Z,5.25
2018-11-06T17:23:01.623Z,4.90
2018-11-06T17:25:30.882Z,5.17
2018-11-06T17:27:59.685Z,5.20
2018-11-06T17:30:28.328Z,5.13
2018-11-06T17:32:57.009Z,5.40
2018-11-06T17:35:25.664Z,4.73
2018-11-06T17:37:54.407Z,4.10
2018-11-06T17:40:23.088Z,4.17
2018-11-06T17:42:51.740Z,4.03
2018-11-06T17:45:21.907Z,4.80
2018-11-06T17:47:50.783Z,3.77
2018-11-06T17:50:20.395Z,4.30
2018-11-06T17:52:49.056Z,3.73
2018-11-06T17:55:19.048Z,3.87
2018-11-06T17:57:47.614Z,3.17
2018-11-06T18:00:18.734Z,3.33
2018-11-06T18:02:47.996Z,3.80
2018-11-06T18:05:17.854Z,3.43
2018-11-06T18:07:46.537Z,3.97
2018-11-06T18:10:16.955Z,3.83
2018-11-06T18:12:46.098Z,3.40
2018-11-06T18:15:15.272Z,3.37
2018-11-06T18:17:44.296Z,3.57
2018-11-06T18:20:13.735Z,3.10
2018-11-06T18:22:43.276Z,3.47
2018-11-06T18:25:12.927Z,3.07
2018-11-06T18:27:41.664Z,3.23
2018-11-06T18:30:13.115Z,3.17
2018-11-06T18:32:41.816Z,3.40
2018-11-06T18:35:12.125Z,3.63
2018-11-06T18:37:41.149Z,3.27
2018-11-06T18:40:12.469Z,3.90
2018-11-06T18:42:41.551Z,3.93
2018-11-06T18:45:10.339Z,4.83
2018-11-06T18:47:39.326Z,4.77
2018-11-06T18:50:09.353Z,4.53
2018-11-06T18:52:38.391Z,6.00
2018-11-06T18:55:07.826Z,4.30
2018-11-06T18:57:36.638Z,4.23
2018-11-06T19:00:06.114Z,7.10
2018-11-06T19:02:34.785Z,4.00
2018-11-06T19:05:03.480Z,4.30
2018-11-06T19:07:32.160Z,3.60
2018-11-06T19:10:00.857Z,4.13
2018-11-06T19:12:29.571Z,4.20
2018-11-06T19:14:58.628Z,5.57
2018-11-06T19:17:27.480Z,3.23
2018-11-06T19:19:56.168Z,3.63
2018-11-06T19:22:24.874Z,6.53
2018-11-06T19:24:53.556Z,4.30
2018-11-06T19:27:22.668Z,5.17
2018-11-06T19:29:51.340Z,4.77
2018-11-06T19:32:20.470Z,4.20
2018-11-06T19:34:50.130Z,5.13
2018-11-06T19:37:18.910Z,4.20
2018-11-06T19:39:47.922Z,4.33
2018-11-06T19:42:17.016Z,4.40
2018-11-06T19:44:45.786Z,4.77
2018-11-06T19:47:14.797Z,4.43
2018-11-06T19:49:43.590Z,3.72
2018-11-06T19:52:12.288Z,3.67
2018-11-06T19:54:40.969Z,4.47
2018-11-06T19:57:09.659Z,4.47
2018-11-06T19:59:38.384Z,4.10
2018-11-06T20:02:07.385Z,4.50
2018-11-06T20:04:36.136Z,5.30
2018-11-06T20:07:05.121Z,4.80
2018-11-06T20:09:33.864Z,5.25
2018-11-06T20:12:02.650Z,5.00
2018-11-06T20:14:31.306Z,7.00
2018-11-06T20:16:59.950Z,5.60
2018-11-06T20:19:28.653Z,5.50
2018-11-06T20:21:57.338Z,5.63
2018-11-06T20:24:26.341Z,5.70
2018-11-06T20:26:55.353Z,5.50
2018-11-06T20:29:24.453Z,5.77
2018-11-06T20:31:53.343Z,5.73
2018-11-06T20:34:22.230Z,5.33
2018-11-06T20:36:50.901Z,5.57
2018-11-06T20:39:20.307Z,5.40
2018-11-06T20:41:48.985Z,5.93
2018-11-06T20:44:17.636Z,5.93
2018-11-06T20:46:46.328Z,5.63
2018-11-06T20:49:14.997Z,6.53
2018-11-06T20:51:43.664Z,6.60
2018-11-06T20:54:12.562Z,6.70
2018-11-06T20:56:41.268Z,7.27
2018-11-06T20:59:09.972Z,6.77
2018-11-06T21:01:38.824Z,6.70
2018-11-06T21:04:07.489Z,6.03
2018-11-06T21:06:36.197Z,5.35
2018-11-06T21:09:07.181Z,6.43
2018-11-06T21:11:36.318Z,5.43
2018-11-06T21:14:05.509Z,5.90
2018-11-06T21:16:34.597Z,5.75
2018-11-06T21:19:03.701Z,5.87
2018-11-06T21:21:32.437Z,5.67
2018-11-06T21:24:01.195Z,4.47
2018-11-06T21:26:30.033Z,4.53
2018-11-06T21:28:58.544Z,4.37
2018-11-06T21:31:27.351Z,4.70
2018-11-06T21:33:55.949Z,4.43
2018-11-06T21:36:25.221Z,3.80
2018-11-06T21:38:54.061Z,4.20
2018-11-06T21:41:22.668Z,4.20
2018-11-06T21:43:51.719Z,4.20
2018-11-06T21:46:20.998Z,5.07
2018-11-06T21:48:49.780Z,4.80
2018-11-06T21:51:18.450Z,3.93
2018-11-06T21:53:47.140Z,4.10
2018-11-06T21:56:16.200Z,3.97
2018-11-06T21:58:45.017Z,4.67
2018-11-06T22:01:13.568Z,4.40
2018-11-06T22:03:42.997Z,3.80
2018-11-06T22:06:11.990Z,4.63
2018-11-06T22:08:40.756Z,4.83
2018-11-06T22:11:09.794Z,3.43
2018-11-06T22:13:38.873Z,4.63
2018-11-06T22:16:07.674Z,3.30
2018-11-06T22:18:36.364Z,3.20
2018-11-06T22:21:05.052Z,3.60
2018-11-06T22:23:33.748Z,3.20
2018-11-06T22:26:03.082Z,4.30
2018-11-06T22:28:31.809Z,3.60
2018-11-06T22:31:01.386Z,3.57
2018-11-06T22:33:30.429Z,2.57
2018-11-06T22:35:59.532Z,3.10
2018-11-06T22:38:28.296Z,3.07
2018-11-06T22:40:56.949Z,2.67
2018-11-06T22:43:26.043Z,3.10
2018-11-06T22:45:54.989Z,2.90
2018-11-06T22:48:24.093Z,3.17
2018-11-06T22:50:53.062Z,2.60
2018-11-06T22:53:22.041Z,2.63
2018-11-06T22:55:50.685Z,2.43
2018-11-06T22:58:19.352Z,2.60
2018-11-06T23:00:53.384Z,2.60
2018-11-06T23:03:22.036Z,2.73
2018-11-06T23:05:51.053Z,2.27
2018-11-06T23:08:27.825Z,1.93
2018-11-06T23:10:56.733Z,2.37
2018-11-06T23:13:27.697Z,2.20
2018-11-06T23:15:56.442Z,2.63
2018-11-06T23:18:25.128Z,2.20
2018-11-06T23:20:53.855Z,2.10
2018-11-06T23:23:22.482Z,2.20
2018-11-06T23:25:51.162Z,2.10
2018-11-06T23:28:19.806Z,2.20
2018-11-06T23:30:48.448Z,2.40
2018-11-06T23:33:17.450Z,2.33
2018-11-06T23:35:46.293Z,2.13
2018-11-06T23:38:15.201Z,2.27
2018-11-06T23:40:43.963Z,3.17
2018-11-06T23:43:12.625Z,2.40
2018-11-06T23:45:41.828Z,2.37
2018-11-06T23:48:10.604Z,2.30
2018-11-06T23:50:39.594Z,2.07
2018-11-06T23:53:09.812Z,2.83
2018-11-06T23:55:38.905Z,2.10
2018-11-06T23:58:07.702Z,2.10
